^^
Datos históricos de la estación: Murcia-Puente Tocinos
Diario Informe para Noviembre 7, 2019 Unidades:  Métrico    Ingés   Ambas
Diario Semanal Mensual Anual
  Máxima: Mínima: Promedio:
Temperatura: 21.4 °C 9.9 °C 15.7 °C
Punto de rocio: 11.6 °C 2.6 °C 6.4 °C
Humedad: 72% 37.1% 55%
Velocidad viento: 20.1km/h 0km/h 5.8km/h
Racha viento: 38.9km/h - -
Viento- - SO
Presión: 1013.6 hPa 1007.2 hPa -
Precipitación: 0.3 mm    
 
 
Tabla de datos para Noviembre 7, 2019
Hora Temperatura Punto de rocio Presión Viento Velocidad viento Racha viento Humedad Intensidad lluvia(por hora) Nubes
00:04 14.5 °C 4.6 °C 1013.6 hPa SSE 5.6 km/h 9.7 km/h 51.2% 0.0 mm
00:09 14.4 °C 4.7 °C 1013.6 hPa Sur 5.8 km/h 8 km/h 52% 0.0 mm
00:14 14.3 °C 4.6 °C 1013.3 hPa SSO 4.9 km/h 8 km/h 52% 0.0 mm
00:19 14.3 °C 4.6 °C 1013.3 hPa SO 4.7 km/h 8.4 km/h 52.1% 0.0 mm
00:24 14.2 °C 4.5 °C 1013.3 hPa SSO 4.7 km/h 8 km/h 52% 0.0 mm
00:29 14.2 °C 4.6 °C 1013.3 hPa Sur 4.7 km/h 8 km/h 52.6% 0.0 mm
00:34 14.2 °C 4.6 °C 1013.3 hPa SO 4.9 km/h 8.4 km/h 52.6% 0.0 mm
00:39 14.1 °C 4.6 °C 1013.3 hPa SSO 5 km/h 8.4 km/h 52.6% 0.0 mm
00:44 14 °C 4.9 °C 1013.1 hPa SE 4.7 km/h 8.4 km/h 54.4% 0.0 mm
00:49 13.7 °C 4.8 °C 1013.1 hPa Sur 4.7 km/h 10 km/h 55% 0.0 mm
00:54 13.6 °C 4.7 °C 1013.1 hPa SSO 5.5 km/h 9.7 km/h 55% 0.0 mm
00:59 13.6 °C 4.7 °C 1013.0 hPa SO 5.8 km/h 9.7 km/h 55% 0.0 mm
01:04 13.6 °C 4.7 °C 1013.0 hPa SSO 5.1 km/h 10 km/h 55% 0.0 mm
01:09 13.5 °C 4.6 °C 1013.0 hPa SSO 5 km/h 9.7 km/h 55% 0.0 mm
01:14 13.5 °C 4.6 °C 1012.8 hPa SO 6.1 km/h 10 km/h 55% 0.0 mm
01:19 13.5 °C 4.6 °C 1012.8 hPa SO 6.5 km/h 9.7 km/h 55% 0.0 mm
01:24 13.4 °C 4.6 °C 1012.8 hPa SSO 5.3 km/h 13 km/h 55% 0.0 mm
01:29 13.5 °C 4.6 °C 1012.8 hPa SO 5 km/h 13 km/h 55% 0.0 mm
01:34 13.5 °C 4.6 °C 1012.8 hPa SO 7 km/h 11.3 km/h 55% 0.0 mm
01:39 13.4 °C 4.6 °C 1012.8 hPa SO 7.6 km/h 9.7 km/h 55% 0.0 mm
01:44 13.4 °C 4.5 °C 1012.6 hPa SO 5.2 km/h 7.4 km/h 55% 0.0 mm
01:49 13.3 °C 4.4 °C 1012.6 hPa SSO 4.7 km/h 10 km/h 55% 0.0 mm
01:54 13.3 °C 4.4 °C 1012.6 hPa Sur 4.9 km/h 11.9 km/h 55% 0.0 mm
01:59 13.3 °C 4.5 °C 1012.4 hPa SSO 5 km/h 11.9 km/h 55% 0.0 mm
02:04 13.3 °C 4.5 °C 1012.4 hPa SSO 7.8 km/h 13 km/h 55% 0.0 mm
02:09 13.3 °C 4.4 °C 1012.4 hPa SSO 8.4 km/h 12.9 km/h 55% 0.0 mm
02:14 13.3 °C 4.4 °C 1012.1 hPa SSO 7.7 km/h 11.1 km/h 55% 0.0 mm
02:19 13.3 °C 4.4 °C 1012.1 hPa SSO 7.6 km/h 11.3 km/h 55% 0.0 mm
02:24 13.3 °C 4.4 °C 1012.1 hPa SO 6.7 km/h 9.7 km/h 55% 0.0 mm
02:29 13.3 °C 4.3 °C 1012.0 hPa OSO 6.5 km/h 9.7 km/h 54.6% 0.0 mm
02:34 13.2 °C 4.2 °C 1012.0 hPa Oeste 5 km/h 8 km/h 54.2% 0.0 mm
02:39 13.2 °C 4.3 °C 1012.0 hPa Oeste 4.7 km/h 8 km/h 55.1% 0.0 mm
02:44 13 °C 4.5 °C 1011.9 hPa Oeste 3.2 km/h 4.8 km/h 56.5% 0.0 mm
02:49 12.8 °C 4.5 °C 1011.9 hPa Oeste 2.9 km/h 6.9 km/h 57% 0.0 mm
02:54 12.6 °C 4.3 °C 1012.0 hPa SO 3.2 km/h 10 km/h 57.1% 0.0 mm
02:59 12.6 °C 4.1 °C 1012.0 hPa SO 3.2 km/h 14.8 km/h 56% 0.0 mm
03:04 12.7 °C 3.9 °C 1012.0 hPa SO 6.8 km/h 14.5 km/h 55% 0.0 mm
03:09 12.7 °C 3.9 °C 1012.0 hPa SO 7.6 km/h 11.3 km/h 55% 0.0 mm
03:14 12.7 °C 4 °C 1012.0 hPa SO 6.7 km/h 13 km/h 55.5% 0.0 mm
03:19 12.5 °C 4.2 °C 1012.0 hPa SSO 6.5 km/h 16.7 km/h 57% 0.0 mm
03:24 12.3 °C 4.4 °C 1012.0 hPa SSO 7.4 km/h 16.1 km/h 58.6% 0.0 mm
03:29 12.2 °C 4.6 °C 1012.0 hPa SO 7.6 km/h 11.3 km/h 59.9% 0.0 mm
03:34 12.2 °C 4.6 °C 1012.0 hPa OSO 6.7 km/h 11.3 km/h 60% 0.0 mm
03:39 12.1 °C 4.7 °C 1012.0 hPa SO 6.5 km/h 11.1 km/h 60.8% 0.0 mm
03:44 12.1 °C 4.8 °C 1011.9 hPa SSO 5.3 km/h 11.3 km/h 61.1% 0.0 mm
03:49 12.1 °C 5 °C 1011.9 hPa SE 5 km/h 6.4 km/h 62% 0.0 mm
03:54 12 °C 5 °C 1011.9 hPa SE 4.1 km/h 8 km/h 62.2% 0.0 mm
03:59 11.9 °C 5.1 °C 1011.7 hPa SE 3.9 km/h 8 km/h 63% 0.0 mm
04:04 11.9 °C 5 °C 1011.7 hPa Sur 3.3 km/h 8 km/h 63% 0.0 mm
04:09 11.8 °C 5.1 °C 1011.7 hPa Sur 3.2 km/h 6.4 km/h 63.4% 0.0 mm
04:14 11.8 °C 5.1 °C 1011.4 hPa SE 3 km/h 7.4 km/h 63.6% 0.0 mm
04:19 11.6 °C 5 °C 1011.4 hPa Sur 2.9 km/h 8 km/h 64% 0.0 mm
04:24 11.5 °C 5 °C 1011.4 hPa SSO 3.7 km/h 8 km/h 64.6% 0.0 mm
04:29 11.4 °C 5.1 °C 1011.4 hPa SO 3.9 km/h 6.4 km/h 65% 0.0 mm
04:34 11.4 °C 5.1 °C 1011.4 hPa SO 3.1 km/h 6.4 km/h 65% 0.0 mm
04:39 11.5 °C 5.2 °C 1011.4 hPa SO 2.9 km/h 4.8 km/h 65% 0.0 mm
04:44 11.5 °C 5.2 °C 1011.4 hPa SO 0.6 km/h 7.4 km/h 65% 0.0 mm
04:49 11.6 °C 5.3 °C 1011.4 hPa Calm   8 km/h 65.3% 0.0 mm
04:54 11.4 °C 4.9 °C 1011.4 hPa SE 2.6 km/h 8.4 km/h 64.2% 0.0 mm
04:59 11.3 °C 4.8 °C 1011.3 hPa SE 3.2 km/h 8 km/h 64.4% 0.0 mm
05:04 11.2 °C 4.8 °C 1011.3 hPa SSE 4.4 km/h 8.7 km/h 65% 0.0 mm
05:09 11.1 °C 4.8 °C 1011.4 hPa SSE 4.7 km/h 9.7 km/h 65.3% 0.0 mm
05:14 11.1 °C 5 °C 1011.4 hPa SSE 5.6 km/h 12.2 km/h 66% 0.0 mm
05:19 11.1 °C 5 °C 1011.4 hPa Sur 5.8 km/h 13 km/h 66% 0.0 mm
05:24 11.1 °C 5 °C 1011.4 hPa SSE 6.7 km/h 11.1 km/h 66% 0.0 mm
05:29 11.1 °C 5 °C 1011.4 hPa Sur 6.9 km/h 11.3 km/h 66% 0.0 mm
05:34 11.1 °C 4.9 °C 1011.4 hPa SSO 6.9 km/h 13 km/h 65.6% 0.0 mm
05:39 11.2 °C 4.8 °C 1011.4 hPa SSO 6.9 km/h 12.9 km/h 64.9% 0.0 mm
05:44 11.2 °C 4.8 °C 1011.3 hPa SSE 6.9 km/h 11.3 km/h 65% 0.0 mm
05:49 11.2 °C 4.9 °C 1011.3 hPa SSE 6.9 km/h 9.5 km/h 65.2% 0.0 mm
05:54 11 °C 4.9 °C 1011.3 hPa SSE 6 km/h 9.7 km/h 66% 0.0 mm
05:59 10.9 °C 4.9 °C 1011.1 hPa SSO 5.8 km/h 9.7 km/h 66.5% 0.0 mm
06:04 10.9 °C 4.8 °C 1011.1 hPa SSO 4.8 km/h 10 km/h 66% 0.0 mm
06:09 11.1 °C 4.9 °C 1011.1 hPa SO 4.7 km/h 9.7 km/h 65.5% 0.0 mm
06:14 11.2 °C 4.8 °C 1011.0 hPa Oeste 4.9 km/h 8 km/h 65% 0.0 mm
06:19 11.3 °C 4.9 °C 1011.0 hPa Oeste 5 km/h 8 km/h 65% 0.0 mm
06:24 11.2 °C 4.8 °C 1011.0 hPa Oeste 3.3 km/h 4.8 km/h 65.1% 0.0 mm
06:29 11 °C 4.9 °C 1010.9 hPa Oeste 2.9 km/h 3.9 km/h 66% 0.0 mm
06:34 10.8 °C 4.9 °C 1010.9 hPa Oeste 0.6 km/h 3.9 km/h 66.7% 0.0 mm
06:39 10.7 °C 4.9 °C 1011.0 hPa Calm   3.9 km/h 67.3% 0.0 mm
06:44 10.6 °C 4.9 °C 1011.0 hPa Calm   6.4 km/h 68% 0.0 mm
06:49 10.3 °C 4.8 °C 1011.0 hPa Calm   8 km/h 68.6% 0.0 mm
06:54 10.2 °C 4.8 °C 1011.0 hPa SE 2.3 km/h 6.4 km/h 69.5% 0.0 mm
06:59 10 °C 4.9 °C 1010.9 hPa SE 2.9 km/h 7.4 km/h 70.4% 0.0 mm
07:04 9.9 °C 4.9 °C 1010.9 hPa SSE 3.7 km/h 8 km/h 71% 0.0 mm
07:09 9.9 °C 4.9 °C 1010.9 hPa Sur 3.9 km/h 8 km/h 71.1% 0.0 mm
07:14 9.9 °C 5.1 °C 1010.9 hPa Sur 3.9 km/h 7.4 km/h 72% 0.0 mm
07:19 9.9 °C 5.1 °C 1010.9 hPa Sur 3.9 km/h 8 km/h 71.9% 0.0 mm
07:24 10.1 °C 5 °C 1010.9 hPa SSO 4.8 km/h 9.5 km/h 71% 0.0 mm
07:29 10.2 °C 5.2 °C 1010.9 hPa SSO 5 km/h 10.3 km/h 71% 0.0 mm
07:34 10.3 °C 5.1 °C 1010.9 hPa SSE 6.1 km/h 11.3 km/h 70% 0.0 mm
07:39 10.3 °C 5.1 °C 1010.9 hPa SSE 6.5 km/h 10 km/h 70% 0.0 mm
07:44 10.3 °C 5.1 °C 1010.9 hPa SSE 6.8 km/h 9.7 km/h 70% 0.0 mm
07:49 10.3 °C 5 °C 1010.9 hPa Sur 6.9 km/h 8 km/h 70% 0.0 mm
07:54 10.3 °C 5.1 °C 1010.9 hPa SSE 5.4 km/h 8 km/h 70% 0.0 mm
07:59 10.3 °C 5.1 °C 1010.9 hPa SSO 5 km/h 8 km/h 70% 0.0 mm
08:04 10.4 °C 5 °C 1010.9 hPa SSO 3.2 km/h 6.9 km/h 69.4% 0.0 mm
08:09 10.6 °C 5.1 °C 1010.9 hPa SO 2.9 km/h 8 km/h 68.9% 0.0 mm
08:14 10.7 °C 5.1 °C 1010.9 hPa SO 3.7 km/h 8 km/h 68% 0.0 mm
08:19 10.9 °C 5.1 °C 1010.9 hPa Sur 3.9 km/h 9.5 km/h 67.6% 0.0 mm
08:24 11.1 °C 5.3 °C 1011.0 hPa SSE 4.5 km/h 9.7 km/h 67.6% 0.0 mm
08:29 11.2 °C 5.3 °C 1011.0 hPa SSE 4.7 km/h 9.3 km/h 67% 0.0 mm
08:34 11.2 °C 5.3 °C 1011.0 hPa SSE 4.9 km/h 9.7 km/h 67.3% 0.0 mm
08:39 11 °C 5.3 °C 1011.1 hPa SSE 5 km/h 9.7 km/h 68.1% 0.0 mm
08:44 11 °C 5.4 °C 1011.1 hPa SSE 6.1 km/h 9.7 km/h 68.4% 0.0 mm
08:49 11.2 °C 5.5 °C 1011.1 hPa Sur 6.5 km/h 8 km/h 68% 0.0 mm
08:54 11.4 °C 5.5 °C 1011.1 hPa SSE 5 km/h 8 km/h 67.3% 0.0 mm
08:59 11.7 °C 5.6 °C 1011.0 hPa SE 4.7 km/h 9.3 km/h 66.3% 0.0 mm
09:04 11.9 °C 5.7 °C 1011.0 hPa SSE 4.9 km/h 9.7 km/h 65.7% 0.0 mm
09:09 12.2 °C 5.5 °C 1011.0 hPa Sur 5 km/h 8 km/h 63.8% 0.0 mm
09:14 12.2 °C 5.4 °C 1011.0 hPa SO 4.1 km/h 8 km/h 63% 0.0 mm
09:19 12.4 °C 5.3 °C 1011.0 hPa OSO 3.9 km/h 6.9 km/h 61.9% 0.0 mm
09:24 12.7 °C 5.2 °C 1011.0 hPa ONO 3.1 km/h 8.4 km/h 60.4% 0.0 mm
09:29 12.8 °C 5.2 °C 1011.0 hPa ONO 2.9 km/h 9.3 km/h 60% 0.0 mm
09:34 12.9 °C 5.3 °C 1011.0 hPa ONO 4.6 km/h 9.7 km/h 60% 0.0 mm
09:39 13 °C 5.3 °C 1011.1 hPa OSO 5 km/h 7.6 km/h 59.3% 0.0 mm
09:44 13.2 °C 5.2 °C 1011.1 hPa SO 4.1 km/h 8.4 km/h 58.4% 0.0 mm
09:49 13.5 °C 5.4 °C 1011.1 hPa Sur 3.9 km/h 11.1 km/h 57.9% 0.0 mm
09:54 13.9 °C 5.5 °C 1011.1 hPa SSO 5.4 km/h 11.3 km/h 57.2% 0.0 mm
09:59 14.1 °C 5.4 °C 1011.0 hPa SSO 5.8 km/h 11.3 km/h 56.2% 0.0 mm
10:04 14.2 °C 5.4 °C 1011.0 hPa OSO 6.3 km/h 11.1 km/h 55.2% 0.0 mm
10:09 14.3 °C 5.2 °C 1011.1 hPa OSO 6.5 km/h 11.3 km/h 54.4% 0.0 mm
10:14 14.4 °C 5.2 °C 1011.1 hPa Oeste 5.9 km/h 11.3 km/h 54% 0.0 mm
10:19 14.6 °C 5.4 °C 1011.1 hPa Oeste 5.8 km/h 9.7 km/h 54% 0.0 mm
10:24 14.8 °C 5.3 °C 1011.1 hPa OSO 4.2 km/h 9.3 km/h 53.1% 0.0 mm
10:29 14.9 °C 5.4 °C 1011.0 hPa Oeste 3.9 km/h 9.7 km/h 53% 0.0 mm
10:34 15 °C 5.4 °C 1011.0 hPa Oeste 3.9 km/h 8.4 km/h 52.6% 0.0 mm
10:39 15.2 °C 5.3 °C 1011.0 hPa Sur 3.9 km/h 8.4 km/h 51.4% 0.0 mm
10:44 15.6 °C 5.5 °C 1010.8 hPa SE 4.5 km/h 8 km/h 51% 0.0 mm
10:49 16 °C 5.5 °C 1010.8 hPa ENE 4.7 km/h 8 km/h 49.7% 0.0 mm
10:54 16.3 °C 5.5 °C 1010.8 hPa NO 3.5 km/h 6.4 km/h 48.9% 0.0 mm
10:59 16.7 °C 5.7 °C 1010.7 hPa SSO 3.2 km/h 6.4 km/h 48.2% 0.0 mm
11:04 16.9 °C 5.5 °C 1010.7 hPa ONO 3 km/h 6.4 km/h 47.1% 0.0 mm
11:09 17.2 °C 5.7 °C 1010.7 hPa SSE 2.9 km/h 7.4 km/h 46.9% 0.0 mm
11:14 17.5 °C 5.6 °C 1010.7 hPa North 2.4 km/h 8 km/h 45.6% 0.0 mm
11:19 17.6 °C 5.7 °C 1010.7 hPa OSO 2.2 km/h 8 km/h 45.7% 0.0 mm
11:24 17.6 °C 5.8 °C 1010.7 hPa SO 3.6 km/h 8.4 km/h 45.8% 0.0 mm
11:29 17.7 °C 5.8 °C 1010.5 hPa NO 3.9 km/h 8 km/h 45.5% 0.0 mm
11:34 17.8 °C 6 °C 1010.5 hPa ONO 3.1 km/h 8 km/h 45.8% 0.0 mm
11:39 18.2 °C 6.1 °C 1010.5 hPa Sur 2.9 km/h 9.5 km/h 45.1% 0.0 mm
11:44 18.4 °C 6.1 °C 1010.1 hPa SSE 4.3 km/h 9.7 km/h 44.4% 0.0 mm
11:49 18.7 °C 6.3 °C 1010.1 hPa SSO 4.7 km/h 8.4 km/h 44.4% 0.0 mm
11:54 18.9 °C 6.4 °C 1010.1 hPa SSE 4 km/h 11.1 km/h 44% 0.0 mm
11:59 19.1 °C 6.5 °C 1009.9 hPa SO 3.9 km/h 11.3 km/h 44% 0.0 mm
12:04 19.2 °C 6.6 °C 1009.9 hPa NNE 4.5 km/h 9.3 km/h 44% 0.0 mm
12:09 19.2 °C 6.8 °C 1009.9 hPa OSO 4.7 km/h 13 km/h 44.4% 0.0 mm
12:14 19.1 °C 6.9 °C 1009.7 hPa SO 6.1 km/h 12.9 km/h 45% 0.0 mm
12:19 19.1 °C 6.9 °C 1009.7 hPa OSO 6.5 km/h 10 km/h 45% 0.0 mm
12:24 19.2 °C 7.1 °C 1009.7 hPa Oeste 5.9 km/h 9.7 km/h 45.5% 0.0 mm
12:29 19.3 °C 7.4 °C 1009.4 hPa Sur 5.8 km/h 11.1 km/h 45.9% 0.0 mm
12:34 19.4 °C 7.3 °C 1009.4 hPa SSO 6.3 km/h 11.9 km/h 45.4% 0.0 mm
12:39 19.5 °C 7.6 °C 1009.4 hPa OSO 6.5 km/h 11.9 km/h 46% 0.0 mm
12:44 19.5 °C 7.5 °C 1009.3 hPa OSO 6.8 km/h 12.2 km/h 46% 0.0 mm
12:49 19.5 °C 7.6 °C 1009.3 hPa OSO 6.9 km/h 13 km/h 46% 0.0 mm
12:54 19.7 °C 7.7 °C 1009.3 hPa OSO 6.5 km/h 14.8 km/h 46% 0.0 mm
12:59 19.7 °C 7.8 °C 1009.0 hPa OSO 6.5 km/h 14.8 km/h 46.1% 0.0 mm
13:04 19.7 °C 7.8 °C 1009.0 hPa OSO 8.3 km/h 14.5 km/h 46.2% 0.0 mm
13:09 19.8 °C 8 °C 1009.0 hPa SO 8.7 km/h 13 km/h 46.4% 0.0 mm
13:14 20 °C 8.1 °C 1008.7 hPa SO 6.9 km/h 15.6 km/h 46.2% 0.0 mm
13:19 20.2 °C 8.2 °C 1008.7 hPa OSO 6.5 km/h 16.1 km/h 46% 0.0 mm
13:24 20.3 °C 8.3 °C 1008.7 hPa OSO 8 km/h 14.5 km/h 45.9% 0.0 mm
13:29 20.6 °C 8.2 °C 1008.5 hPa OSO 8.4 km/h 14.8 km/h 45% 0.0 mm
13:34 20.7 °C 8.3 °C 1008.5 hPa OSO 6.8 km/h 14.8 km/h 45% 0.0 mm
13:39 20.6 °C 8.2 °C 1008.5 hPa OSO 6.5 km/h 14.8 km/h 45% 0.0 mm
13:44 20.7 °C 8.3 °C 1008.2 hPa SO 8.3 km/h 14.5 km/h 45% 0.0 mm
13:49 20.8 °C 8.5 °C 1008.2 hPa SO 8.7 km/h 11.3 km/h 45.1% 0.0 mm
13:54 20.9 °C 8.5 °C 1008.2 hPa Oeste 6.3 km/h 11.3 km/h 44.9% 0.0 mm
13:59 21.1 °C 8.5 °C 1007.8 hPa SO 5.8 km/h 9.7 km/h 44.4% 0.0 mm
14:04 21.1 °C 8.7 °C 1007.8 hPa OSO 4.1 km/h 9.7 km/h 45% 0.0 mm
14:09 21.2 °C 8.8 °C 1007.8 hPa OSO 3.9 km/h 9.7 km/h 45% 0.0 mm
14:14 21.2 °C 8.7 °C 1007.8 hPa ONO 4.5 km/h 9.7 km/h 44.8% 0.0 mm
14:19 21.3 °C 8.7 °C 1007.8 hPa ONO 4.7 km/h 9.7 km/h 44.3% 0.0 mm
14:24 21.4 °C 8.6 °C 1007.8 hPa ONO 4 km/h 9.7 km/h 44% 0.0 mm
14:29 21.4 °C 8.6 °C 1007.6 hPa NO 3.9 km/h 9.7 km/h 44% 0.0 mm
14:34 21.4 °C 8.7 °C 1007.6 hPa NO 4.8 km/h 10 km/h 44.3% 0.0 mm
14:39 21.3 °C 8.8 °C 1007.6 hPa NO 5 km/h 13 km/h 44.6% 0.0 mm
14:44 21.3 °C 8.5 °C 1007.5 hPa NO 6.1 km/h 16.7 km/h 43.9% 0.0 mm
14:49 21.1 °C 8.3 °C 1007.5 hPa NO 6.5 km/h 16.1 km/h 43.7% 0.0 mm
14:54 20.9 °C 8.3 °C 1007.7 hPa ONO 9.6 km/h 16.7 km/h 44.4% 0.0 mm
14:59 20.8 °C 8.7 °C 1007.7 hPa Oeste 10.3 km/h 17.2 km/h 46% 0.0 mm
15:04 20.4 °C 9.7 °C 1007.7 hPa ONO 11 km/h 22.2 km/h 50.3% 0.0 mm
15:09 19.9 °C 10.6 °C 1008.2 hPa ONO 11.1 km/h 22.5 km/h 54.9% 0.0 mm
15:14 19.6 °C 10.6 °C 1008.2 hPa Oeste 8.2 km/h 9.7 km/h 56.1% 0.0 mm
15:19 19.4 °C 10.7 °C 1008.2 hPa SO 7.6 km/h 9.7 km/h 57.3% 0.0 mm
15:24 19.3 °C 10.8 °C 1008.2 hPa SO 5.5 km/h 8.4 km/h 57.7% 0.0 mm
15:29 19.4 °C 10.8 °C 1008.2 hPa SSO 5 km/h 9.5 km/h 57.8% 0.0 mm
15:34 19.5 °C 10.7 °C 1008.2 hPa SSE 5 km/h 11.1 km/h 56.8% 0.0 mm
15:39 19.6 °C 10.9 °C 1008.2 hPa Sur 5 km/h 14.8 km/h 57.1% 0.0 mm
15:44 19.6 °C 10.9 °C 1007.7 hPa Sur 7 km/h 14.5 km/h 57.3% 0.0 mm
15:49 19.6 °C 10.8 °C 1007.7 hPa SSE 7.6 km/h 14 km/h 56.8% 0.0 mm
15:54 19.6 °C 10.6 °C 1007.7 hPa SSE 8.2 km/h 14.8 km/h 56.2% 0.0 mm
15:59 19.6 °C 10.9 °C 1007.5 hPa Sur 8.4 km/h 14.5 km/h 57.1% 0.0 mm
16:04 19.8 °C 10.9 °C 1007.5 hPa SSE 8.4 km/h 15.6 km/h 56.5% 0.0 mm
16:09 19.8 °C 11.4 °C 1007.5 hPa SE 8.4 km/h 16.7 km/h 58.4% 0.0 mm
16:14 19.8 °C 11.6 °C 1007.2 hPa SSE 8.6 km/h 16.1 km/h 59.2% 0.0 mm
16:19 19.8 °C 11.6 °C 1007.2 hPa NNE 8.7 km/h 11.3 km/h 58.9% 0.0 mm
16:24 20.1 °C 11.1 °C 1007.4 hPa Sur 4.3 km/h 8 km/h 56.5% 0.0 mm
16:29 20.1 °C 11.1 °C 1007.4 hPa SSE 3.2 km/h 9.5 km/h 56.2% 0.0 mm
16:34 19.9 °C 11.2 °C 1007.4 hPa SSE 3.7 km/h 11.1 km/h 57% 0.0 mm
16:39 19.8 °C 11.1 °C 1007.4 hPa SSE 3.9 km/h 13.7 km/h 57.1% 0.0 mm
16:44 19.8 °C 11.2 °C 1007.3 hPa SSE 7.5 km/h 14.5 km/h 57.6% 0.0 mm
16:49 19.9 °C 11.2 °C 1007.3 hPa SSE 8.4 km/h 9.7 km/h 57.3% 0.0 mm
16:54 20 °C 11.2 °C 1007.3 hPa SE 5.4 km/h 12.2 km/h 56.9% 0.0 mm
16:59 20 °C 11 °C 1007.3 hPa Sur 4.7 km/h 13 km/h 56% 0.0 mm
17:04 19.9 °C 10.8 °C 1007.3 hPa Sur 6.1 km/h 12.9 km/h 56% 0.0 mm
17:09 19.9 °C 10.8 °C 1007.3 hPa Sur 6.5 km/h 11.3 km/h 55.7% 0.0 mm
17:14 19.9 °C 10.9 °C 1007.3 hPa Sur 7.4 km/h 11.9 km/h 56.3% 0.0 mm
17:19 19.9 °C 11.1 °C 1007.3 hPa Sur 7.6 km/h 13 km/h 57% 0.0 mm
17:24 19.9 °C 11.1 °C 1007.5 hPa Sur 8.2 km/h 12.9 km/h 57.2% 0.0 mm
17:29 19.8 °C 11.1 °C 1007.5 hPa Sur 8.4 km/h 11.9 km/h 57% 0.0 mm
17:34 19.9 °C 11.1 °C 1007.5 hPa SSO 7.2 km/h 11.3 km/h 57% 0.0 mm
17:39 19.9 °C 11.1 °C 1007.5 hPa OSO 6.9 km/h 11.3 km/h 57% 0.0 mm
17:44 19.9 °C 11.2 °C 1007.4 hPa Oeste 5.1 km/h 8 km/h 57.4% 0.0 mm
17:49 19.9 °C 11.1 °C 1007.4 hPa SO 4.7 km/h 6.4 km/h 57.1% 0.0 mm
17:54 19.8 °C 11.1 °C 1007.4 hPa Sur 3.2 km/h 9.5 km/h 57% 0.0 mm
17:59 19.7 °C 10.9 °C 1007.3 hPa Sur 2.9 km/h 11.1 km/h 57% 0.0 mm
18:04 19.5 °C 11 °C 1007.3 hPa Sur 5.9 km/h 11.3 km/h 58% 0.0 mm
18:09 19.3 °C 11 °C 1007.4 hPa Sur 6.5 km/h 11.9 km/h 58.5% 0.0 mm
18:14 19.2 °C 11 °C 1007.4 hPa Sur 6.8 km/h 11.3 km/h 59.2% 0.0 mm
18:19 19.1 °C 11.1 °C 1007.4 hPa SSE 6.9 km/h 9.7 km/h 60% 0.0 mm
18:24 19 °C 11.1 °C 1007.4 hPa Sur 5.4 km/h 8 km/h 60.3% 0.0 mm
18:29 18.9 °C 11.2 °C 1007.4 hPa Sur 5 km/h 7.4 km/h 61% 0.0 mm
18:34 18.9 °C 11.2 °C 1007.4 hPa OSO 3.5 km/h 8 km/h 61% 0.0 mm
18:39 18.8 °C 11.1 °C 1007.8 hPa OSO 3.2 km/h 4.8 km/h 61% 0.0 mm
18:44 18.7 °C 11 °C 1007.8 hPa OSO 2.4 km/h 3.2 km/h 61.1% 0.0 mm
18:49 18.6 °C 11.1 °C 1007.8 hPa OSO 2.2 km/h   62% 0.0 mm
18:54 18.4 °C 11.2 °C 1007.9 hPa OSO 0.4 km/h   62.9% 0.0 mm
18:59 18.3 °C 11.1 °C 1007.9 hPa Calm   3.9 km/h 63% 0.0 mm
19:04 18.2 °C 11.3 °C 1007.9 hPa Calm   6.4 km/h 63.9% 0.0 mm
19:09 18.1 °C 11.2 °C 1008.0 hPa Calm   8 km/h 64% 0.0 mm
19:14 18.1 °C 11.2 °C 1008.0 hPa SE 3.1 km/h 11.9 km/h 64% 0.0 mm
19:19 18 °C 10.9 °C 1008.0 hPa SSE 3.9 km/h 13 km/h 63.3% 0.0 mm
19:24 18 °C 10.6 °C 1008.1 hPa SSE 6.3 km/h 15.6 km/h 62.1% 0.0 mm
19:29 17.9 °C 10.4 °C 1008.1 hPa SSE 6.9 km/h 17.2 km/h 61.5% 0.0 mm
19:34 17.9 °C 9.1 °C 1008.1 hPa SSO 9.6 km/h 25.9 km/h 56.3% 0.0 mm
19:39 18.3 °C 8.2 °C 1008.1 hPa SSO 10.3 km/h 25.7 km/h 51.8% 0.0 mm
19:44 18.5 °C 8.3 °C 1008.1 hPa SO 10.1 km/h 16.1 km/h 51.5% 0.0 mm
19:49 18.4 °C 8.1 °C 1008.1 hPa SSO 10 km/h 15.6 km/h 51.1% 0.0 mm
19:54 18.4 °C 8.2 °C 1008.2 hPa SO 8 km/h 19 km/h 51.6% 0.0 mm
19:59 18.3 °C 8.2 °C 1008.2 hPa Oeste 7.6 km/h 19.3 km/h 52% 0.0 mm
20:04 18.1 °C 8.1 °C 1008.2 hPa ESE 5.1 km/h 8.4 km/h 51.9% 0.0 mm
20:09 17.9 °C 7.8 °C 1008.3 hPa SO 4.7 km/h 8 km/h 51.7% 0.0 mm
20:14 17.8 °C 7.3 °C 1008.3 hPa SO 4.7 km/h 10 km/h 50.5% 0.0 mm
20:19 17.7 °C 7.2 °C 1008.3 hPa SO 4.7 km/h 9.7 km/h 50% 0.0 mm
20:24 17.6 °C 7 °C 1008.6 hPa SO 5.6 km/h 13.7 km/h 49.7% 0.0 mm
20:29 17.6 °C 6.6 °C 1008.6 hPa OSO 5.8 km/h 18.5 km/h 48.5% 0.0 mm
20:34 17.6 °C 6.4 °C 1008.6 hPa OSO 8.8 km/h 19.3 km/h 48% 0.0 mm
20:39 17.5 °C 6.3 °C 1008.7 hPa OSO 9.5 km/h 16.1 km/h 48% 0.0 mm
20:44 17.5 °C 6.1 °C 1008.7 hPa Oeste 8.6 km/h 17.2 km/h 47.4% 0.0 mm
20:49 17.4 °C 6 °C 1008.7 hPa OSO 8.4 km/h 17.7 km/h 47.2% 0.0 mm
20:54 17.3 °C 5.9 °C 1008.7 hPa SO 8.4 km/h 18.5 km/h 47.1% 0.0 mm
20:59 17.2 °C 5.5 °C 1008.7 hPa Oeste 8.4 km/h 19.3 km/h 46.2% 0.0 mm
21:04 17.2 °C 5.7 °C 1008.7 hPa OSO 6.7 km/h 11.9 km/h 47% 0.0 mm
21:09 17 °C 5.6 °C 1008.9 hPa SO 6.5 km/h 14.8 km/h 47% 0.0 mm
21:14 16.9 °C 5.7 °C 1008.9 hPa OSO 7.4 km/h 16.7 km/h 47.7% 0.0 mm
21:19 16.8 °C 5.1 °C 1008.9 hPa Oeste 7.6 km/h 22 km/h 46.2% 0.0 mm
21:24 16.9 °C 4.6 °C 1009.2 hPa Oeste 9.5 km/h 22.5 km/h 44.3% 0.0 mm
21:29 16.9 °C 4 °C 1009.2 hPa Oeste 10 km/h 22.5 km/h 42.3% 0.0 mm
21:34 17.1 °C 4 °C 1009.2 hPa Oeste 9.6 km/h 16.7 km/h 41.7% 0.0 mm
21:39 17.1 °C 3.7 °C 1009.4 hPa Oeste 9.5 km/h 11.9 km/h 41% 0.0 mm
21:44 17 °C 3.7 °C 1009.4 hPa SO 7 km/h 11.9 km/h 41% 0.0 mm
21:49 17 °C 3.7 °C 1009.4 hPa SO 6.4 km/h 8.4 km/h 41% 0.0 mm
21:54 17 °C 3.7 °C 1009.4 hPa SE 5.3 km/h 13 km/h 41% 0.0 mm
21:59 16.9 °C 3.5 °C 1009.2 hPa SO 5 km/h 12.9 km/h 40.9% 0.0 mm
22:04 16.9 °C 3.1 °C 1009.2 hPa Oeste 5.7 km/h 27.8 km/h 39.6% 0.0 mm
22:09 17.1 °C 3 °C 1009.3 hPa Oeste 5.8 km/h 27.8 km/h 39% 0.0 mm
22:14 17.2 °C 2.8 °C 1009.3 hPa Oeste 12.4 km/h 35.9 km/h 38.2% 0.0 mm
22:19 17.4 °C 2.6 °C 1009.3 hPa Oeste 14 km/h 37 km/h 37.1% 0.3 mm
22:24 17.3 °C 2.8 °C 1009.3 hPa Oeste 18.8 km/h 38.9 km/h 37.8% 0.3 mm
22:29 17.2 °C 2.8 °C 1009.3 hPa Oeste 20.1 km/h 38.6 km/h 38% 0.3 mm
22:34 17.1 °C 2.6 °C 1009.3 hPa Oeste 18.7 km/h 27.4 km/h 38% 0.3 mm
22:39 16.9 °C 2.8 °C 1009.5 hPa Oeste 18.4 km/h 25.9 km/h 38.7% 0.3 mm
22:44 16.8 °C 2.8 °C 1009.5 hPa Oeste 14.6 km/h 25.7 km/h 39% 0.3 mm
22:49 16.6 °C 2.9 °C 1009.5 hPa Oeste 13.7 km/h 19.3 km/h 39.9% 0.3 mm
22:54 16.4 °C 2.8 °C 1009.9 hPa Oeste 10.7 km/h 19.3 km/h 40% 0.3 mm
22:59 16.3 °C 2.7 °C 1009.9 hPa Oeste 10 km/h 14.8 km/h 40% 0.3 mm
23:04 16.2 °C 2.7 °C 1009.9 hPa ONO 8.6 km/h 14.5 km/h 40.4% 0.3 mm
23:09 16.1 °C 2.8 °C 1010.1 hPa ONO 8.4 km/h 14.5 km/h 41% 0.3 mm
23:14 15.9 °C 2.9 °C 1010.1 hPa ONO 6.3 km/h 11.3 km/h 41.7% 0.3 mm
23:19 15.7 °C 3 °C 1010.1 hPa NO 5.8 km/h 8.7 km/h 42.5% 0.0 mm
23:24 15.4 °C 3 °C 1010.3 hPa NO 4.2 km/h 10.3 km/h 43.3% 0.0 mm
23:29 15.2 °C 3 °C 1010.3 hPa ONO 3.9 km/h 11.3 km/h 44% 0.0 mm
23:34 15.1 °C 2.9 °C 1010.3 hPa Oeste 6.3 km/h 11.1 km/h 44.2% 0.0 mm
23:39 14.9 °C 3.1 °C 1010.4 hPa OSO 6.9 km/h 13 km/h 45% 0.0 mm
23:44 14.9 °C 2.8 °C 1010.4 hPa OSO 6.5 km/h 13 km/h 44% 0.0 mm
23:49 15 °C 2.9 °C 1010.4 hPa SO 6.5 km/h 15.6 km/h 44% 0.0 mm
23:54 15.1 °C 3 °C 1010.4 hPa OSO 8 km/h 16.7 km/h 44% 0.0 mm
23:59 15.2 °C 2.8 °C 1010.4 hPa OSO 8.4 km/h 17.2 km/h 43.3% 0.0 mm
Murcia-Puente Tocinos, España
Compliments of Weather Underground - 3 mb

La estación de MeteoMurcia.com, publica sus datos en los siguientes proyectos:

Weather Underground PWS IMURCIAP2 Meteoclimatic www.awekas.at

W3Counter
Web Analytics